createdAt,value
2022-12-25T03:10:42.054Z,100.00
2022-12-25T03:13:14.812Z,100.00
2022-12-25T03:15:41.599Z,100.00
2022-12-25T03:18:14.185Z,100.00
2022-12-25T03:20:41.083Z,100.00
2022-12-25T03:23:07.711Z,100.00
2022-12-25T03:25:34.407Z,100.00
2022-12-25T03:28:01.152Z,100.00
2022-12-25T03:30:44.258Z,100.00
2022-12-25T03:33:44.445Z,100.00
2022-12-25T03:36:18.120Z,100.00
2022-12-25T03:38:59.686Z,100.00
2022-12-25T03:41:33.230Z,100.00
2022-12-25T03:44:10.774Z,100.00
2022-12-25T03:46:40.414Z,100.00
2022-12-25T03:49:26.846Z,100.00
2022-12-25T03:51:54.148Z,100.00
2022-12-25T03:54:23.232Z,100.00
2022-12-25T03:56:50.021Z,100.00
2022-12-25T03:59:23.929Z,100.00
2022-12-25T04:01:51.388Z,100.00
2022-12-25T04:04:18.279Z,100.00
2022-12-25T04:06:44.995Z,100.00
2022-12-25T04:09:11.711Z,100.00
2022-12-25T04:11:38.366Z,100.00
2022-12-25T04:14:04.999Z,100.00
2022-12-25T04:16:31.780Z,100.00
2022-12-25T04:18:58.610Z,100.00
2022-12-25T04:21:25.484Z,100.00
2022-12-25T04:23:52.285Z,100.00
2022-12-25T04:26:19.042Z,100.00
2022-12-25T04:28:45.741Z,100.00
2022-12-25T04:31:12.555Z,100.00
2022-12-25T04:33:39.297Z,100.00
2022-12-25T04:36:06.313Z,100.00
2022-12-25T04:38:33.123Z,100.00
2022-12-25T04:41:00.525Z,100.00
2022-12-25T04:43:27.338Z,100.00
2022-12-25T04:45:58.172Z,100.00
2022-12-25T04:48:25.547Z,100.00
2022-12-25T04:50:52.234Z,100.00
2022-12-25T04:53:19.113Z,100.00
2022-12-25T04:55:45.915Z,100.00
2022-12-25T04:58:12.711Z,100.00
2022-12-25T05:00:39.363Z,100.00
2022-12-25T05:03:06.279Z,100.00
2022-12-25T05:05:33.085Z,100.00
2022-12-25T05:07:59.862Z,100.00
2022-12-25T05:10:26.715Z,100.00
2022-12-25T05:12:53.449Z,100.00
2022-12-25T05:15:20.136Z,100.00
2022-12-25T05:17:46.975Z,100.00
2022-12-25T05:20:13.611Z,100.00
2022-12-25T05:22:41.938Z,100.00
2022-12-25T05:25:08.773Z,100.00
2022-12-25T05:27:35.651Z,100.00
2022-12-25T05:30:03.518Z,100.00
2022-12-25T05:32:30.285Z,100.00
2022-12-25T05:34:57.005Z,100.00
2022-12-25T05:37:23.780Z,100.00
2022-12-25T05:39:50.460Z,100.00
2022-12-25T05:42:17.133Z,100.00
2022-12-25T05:44:43.855Z,100.00
2022-12-25T05:47:10.630Z,100.00
2022-12-25T05:49:37.442Z,100.00
2022-12-25T05:52:04.300Z,100.00
2022-12-25T05:54:31.077Z,100.00
2022-12-25T05:56:57.741Z,100.00
2022-12-25T05:59:24.388Z,100.00
2022-12-25T06:01:51.191Z,100.00
2022-12-25T06:04:17.994Z,100.00
2022-12-25T06:06:44.827Z,100.00
2022-12-25T06:09:12.013Z,100.00
2022-12-25T06:11:39.038Z,100.00
2022-12-25T06:14:06.120Z,100.00
2022-12-25T06:16:37.890Z,100.00
2022-12-25T06:19:05.216Z,100.00
2022-12-25T06:21:31.879Z,100.00
2022-12-25T06:24:01.669Z,100.00
2022-12-25T06:26:28.584Z,100.00
2022-12-25T06:28:55.375Z,100.00
2022-12-25T06:31:23.518Z,100.00
2022-12-25T06:33:50.486Z,100.00
2022-12-25T06:36:19.180Z,100.00
2022-12-25T06:38:46.080Z,100.00
2022-12-25T06:41:14.495Z,100.00
2022-12-25T06:43:41.311Z,100.00
2022-12-25T06:46:10.019Z,100.00
2022-12-25T06:48:37.163Z,100.00
2022-12-25T06:51:03.967Z,100.00
2022-12-25T06:53:37.162Z,100.00
2022-12-25T06:56:11.189Z,100.00
2022-12-25T06:58:37.858Z,100.00
2022-12-25T07:01:08.471Z,100.00
2022-12-25T07:03:35.307Z,100.00
2022-12-25T07:06:02.106Z,100.00
2022-12-25T07:08:28.735Z,100.00
2022-12-25T07:10:55.529Z,100.00
2022-12-25T07:13:22.195Z,100.00
2022-12-25T07:15:48.922Z,100.00
2022-12-25T07:18:15.562Z,100.00
2022-12-25T07:20:42.209Z,100.00
2022-12-25T07:23:08.910Z,100.00
2022-12-25T07:25:37.566Z,100.00
2022-12-25T07:28:04.552Z,100.00
2022-12-25T07:30:31.324Z,100.00
2022-12-25T07:32:57.957Z,100.00
2022-12-25T07:35:24.668Z,100.00
2022-12-25T07:37:51.409Z,100.00
2022-12-25T07:40:18.142Z,100.00
2022-12-25T07:42:44.892Z,100.00
2022-12-25T07:45:11.718Z,100.00
2022-12-25T07:47:38.521Z,100.00
2022-12-25T07:50:08.606Z,100.00
2022-12-25T07:52:41.398Z,100.00
2022-12-25T07:55:10.325Z,100.00
2022-12-25T07:57:37.131Z,100.00
2022-12-25T08:00:04.893Z,100.00
2022-12-25T08:02:31.827Z,100.00
2022-12-25T08:04:59.169Z,100.00
2022-12-25T08:07:26.009Z,100.00
2022-12-25T08:09:52.960Z,100.00
2022-12-25T08:12:19.641Z,100.00
2022-12-25T08:14:46.295Z,100.00
2022-12-25T08:17:13.052Z,100.00
2022-12-25T08:19:39.942Z,100.00
2022-12-25T08:22:06.607Z,100.00
2022-12-25T08:24:33.396Z,100.00
2022-12-25T08:27:00.236Z,100.00
2022-12-25T08:29:26.901Z,100.00
2022-12-25T08:31:53.636Z,100.00
2022-12-25T08:34:20.427Z,100.00
2022-12-25T08:36:47.184Z,100.00
2022-12-25T08:39:13.978Z,100.00
2022-12-25T08:41:40.658Z,100.00
2022-12-25T08:44:07.378Z,100.00
2022-12-25T08:46:34.303Z,100.00
2022-12-25T08:49:01.127Z,100.00
2022-12-25T08:51:27.907Z,100.00
2022-12-25T08:53:57.904Z,100.00
2022-12-25T08:56:24.588Z,100.00
2022-12-25T08:58:51.308Z,100.00
2022-12-25T09:01:18.159Z,100.00
2022-12-25T09:03:45.109Z,98.69
2022-12-25T09:06:13.373Z,94.68
2022-12-25T09:08:46.208Z,92.80
2022-12-25T09:11:15.726Z,85.50
2022-12-25T09:13:42.476Z,79.14
2022-12-25T09:16:10.905Z,76.81
2022-12-25T09:18:37.813Z,75.96
2022-12-25T09:21:06.248Z,79.42
2022-12-25T09:23:33.291Z,82.93
2022-12-25T09:26:01.077Z,83.30
2022-12-25T09:28:27.891Z,79.37
2022-12-25T09:30:54.821Z,75.23
2022-12-25T09:33:21.712Z,59.85
2022-12-25T09:35:58.126Z,56.04
2022-12-25T09:38:25.095Z,55.43
2022-12-25T09:40:59.660Z,58.74
2022-12-25T09:43:26.528Z,61.61
2022-12-25T09:45:53.248Z,69.45
2022-12-25T09:48:20.115Z,72.59
2022-12-25T09:50:52.632Z,76.26
2022-12-25T09:53:21.422Z,77.61
2022-12-25T09:56:04.713Z,79.19
2022-12-25T09:58:31.354Z,82.60
2022-12-25T10:01:05.034Z,81.03
2022-12-25T10:03:40.882Z,81.83
2022-12-25T10:06:22.794Z,81.77
2022-12-25T10:09:00.065Z,82.08
2022-12-25T10:11:51.511Z,80.26
2022-12-25T10:14:43.771Z,77.79
2022-12-25T10:17:24.730Z,71.95
2022-12-25T10:20:10.526Z,65.02
2022-12-25T10:22:41.863Z,54.42
2022-12-25T10:25:18.938Z,50.29
2022-12-25T10:27:47.366Z,51.28
2022-12-25T10:30:21.827Z,58.81
2022-12-25T10:32:48.446Z,61.72
2022-12-25T10:35:25.662Z,67.93
2022-12-25T10:38:02.961Z,69.48
2022-12-25T10:40:38.818Z,70.05
2022-12-25T10:43:11.600Z,70.46
2022-12-25T10:45:45.990Z,69.95
2022-12-25T10:48:25.903Z,71.62
2022-12-25T10:50:52.653Z,69.80
2022-12-25T10:53:26.964Z,68.82
2022-12-25T10:56:01.794Z,69.57
2022-12-25T10:58:28.722Z,70.58
2022-12-25T11:01:03.997Z,70.82
2022-12-25T11:03:54.663Z,72.50
2022-12-25T11:06:25.486Z,72.17
2022-12-25T11:09:01.425Z,72.57
2022-12-25T11:11:28.692Z,75.32
2022-12-25T11:14:00.310Z,72.19
2022-12-25T11:16:28.213Z,72.65
2022-12-25T11:18:55.611Z,73.58
2022-12-25T11:21:29.799Z,74.69
2022-12-25T11:24:03.995Z,73.50
2022-12-25T11:26:35.242Z,74.96
2022-12-25T11:29:01.950Z,74.29
2022-12-25T11:31:36.376Z,74.98
2022-12-25T11:34:36.174Z,74.57
2022-12-25T11:37:02.924Z,75.02
2022-12-25T11:39:37.356Z,75.82
2022-12-25T11:42:06.990Z,76.85
2022-12-25T11:44:54.220Z,75.21
2022-12-25T11:47:39.411Z,75.01
2022-12-25T11:50:33.815Z,75.09
2022-12-25T11:53:02.007Z,74.12
2022-12-25T11:55:35.402Z,73.14
2022-12-25T11:58:14.622Z,74.84
2022-12-25T12:00:41.631Z,74.36
2022-12-25T12:03:38.105Z,74.56
2022-12-25T12:06:07.238Z,74.54
2022-12-25T12:08:33.943Z,74.75
2022-12-25T12:11:17.739Z,74.80
2022-12-25T12:13:59.521Z,75.35
2022-12-25T12:16:26.213Z,75.58
2022-12-25T12:18:52.987Z,74.90
2022-12-25T12:21:22.612Z,75.41
2022-12-25T12:24:05.023Z,75.48
2022-12-25T12:26:34.421Z,76.69
2022-12-25T12:29:01.294Z,76.98
2022-12-25T12:31:45.691Z,76.40
2022-12-25T12:34:25.071Z,76.23
2022-12-25T12:36:54.470Z,76.64
2022-12-25T12:39:24.116Z,76.38
2022-12-25T12:41:50.889Z,77.46
2022-12-25T12:44:17.598Z,77.62
2022-12-25T12:46:52.486Z,76.69
2022-12-25T12:49:24.179Z,76.92
2022-12-25T12:51:51.286Z,76.50
2022-12-25T12:54:22.900Z,77.43
2022-12-25T12:57:05.853Z,77.81
2022-12-25T12:59:42.793Z,77.64
2022-12-25T13:02:41.637Z,77.79
2022-12-25T13:05:14.602Z,78.99
2022-12-25T13:08:06.954Z,77.79
2022-12-25T13:10:35.665Z,78.32
2022-12-25T13:13:11.804Z,78.44
2022-12-25T13:15:38.527Z,78.27
2022-12-25T13:18:09.960Z,77.23
2022-12-25T13:20:40.800Z,76.59
2022-12-25T13:23:25.292Z,76.43
2022-12-25T13:25:55.997Z,76.68
2022-12-25T13:28:32.909Z,77.61
2022-12-25T13:31:07.001Z,78.34
2022-12-25T13:33:33.831Z,78.21
2022-12-25T13:36:00.567Z,79.52
2022-12-25T13:38:27.777Z,78.46
2022-12-25T13:40:55.459Z,79.22
2022-12-25T13:43:22.145Z,79.09
2022-12-25T13:45:54.381Z,77.56
2022-12-25T13:48:21.145Z,78.13
2022-12-25T13:50:56.374Z,78.23
2022-12-25T13:53:23.049Z,77.84
2022-12-25T13:55:51.422Z,78.64
2022-12-25T13:58:26.405Z,78.86
2022-12-25T14:00:54.314Z,78.87
2022-12-25T14:03:31.117Z,78.28
2022-12-25T14:05:59.239Z,78.30
2022-12-25T14:08:27.972Z,80.75
2022-12-25T14:10:54.779Z,79.21
2022-12-25T14:13:23.647Z,79.22
2022-12-25T14:15:50.483Z,80.43
2022-12-25T14:18:17.889Z,80.69
2022-12-25T14:21:14.306Z,81.19
2022-12-25T14:23:45.863Z,80.57
2022-12-25T14:26:18.833Z,81.00
2022-12-25T14:28:49.328Z,80.89
2022-12-25T14:31:16.152Z,80.91
2022-12-25T14:33:42.859Z,80.96
2022-12-25T14:36:11.051Z,80.42
2022-12-25T14:38:37.747Z,80.67
2022-12-25T14:41:06.086Z,80.98
2022-12-25T14:43:32.859Z,83.43
2022-12-25T14:46:01.119Z,82.93
2022-12-25T14:48:29.952Z,81.70
2022-12-25T14:51:03.590Z,82.17
2022-12-25T14:53:37.384Z,83.40
2022-12-25T14:56:04.422Z,84.43
2022-12-25T14:58:31.758Z,85.24
2022-12-25T15:01:00.415Z,84.72
2022-12-25T15:03:29.316Z,83.40
2022-12-25T15:06:20.787Z,83.50
2022-12-25T15:08:57.856Z,84.58
2022-12-25T15:11:24.523Z,84.34
2022-12-25T15:13:51.405Z,85.94
2022-12-25T15:16:22.425Z,85.98
2022-12-25T15:18:49.601Z,86.80
2022-12-25T15:21:17.214Z,86.95
2022-12-25T15:23:44.058Z,86.94
2022-12-25T15:26:12.893Z,86.40
2022-12-25T15:28:40.596Z,85.76
2022-12-25T15:31:21.400Z,86.40
2022-12-25T15:33:48.847Z,87.45
2022-12-25T15:36:15.535Z,88.71
2022-12-25T15:38:42.302Z,87.73
2022-12-25T15:41:19.457Z,88.00
2022-12-25T15:43:46.282Z,88.39
2022-12-25T15:46:12.957Z,88.93
2022-12-25T15:48:39.787Z,90.46
2022-12-25T15:51:06.484Z,90.17
2022-12-25T15:53:33.226Z,91.14
2022-12-25T15:55:59.862Z,91.33
2022-12-25T15:58:26.848Z,90.98
2022-12-25T16:00:53.545Z,91.53
2022-12-25T16:03:20.235Z,92.74
2022-12-25T16:05:52.307Z,93.26
2022-12-25T16:08:19.114Z,94.00
2022-12-25T16:10:46.096Z,93.41
2022-12-25T16:13:12.817Z,94.41
2022-12-25T16:15:39.514Z,94.85
2022-12-25T16:18:06.771Z,94.36
2022-12-25T16:20:34.081Z,95.57
2022-12-25T16:23:00.757Z,94.96
2022-12-25T16:25:27.472Z,94.65
2022-12-25T16:27:54.111Z,95.07
2022-12-25T16:30:20.747Z,95.07
2022-12-25T16:32:49.349Z,95.71
2022-12-25T16:35:16.230Z,95.56
2022-12-25T16:37:43.124Z,95.05
2022-12-25T16:40:10.116Z,95.71
2022-12-25T16:42:37.543Z,94.05
2022-12-25T16:45:04.578Z,94.89
2022-12-25T16:47:31.385Z,94.78
2022-12-25T16:49:58.264Z,95.07
2022-12-25T16:52:26.967Z,95.27
2022-12-25T16:54:53.960Z,95.53
2022-12-25T16:57:20.800Z,96.03
2022-12-25T16:59:47.467Z,96.73
2022-12-25T17:02:15.762Z,96.64
2022-12-25T17:04:43.305Z,96.28
2022-12-25T17:07:10.286Z,96.14
2022-12-25T17:09:43.702Z,97.12
2022-12-25T17:12:10.891Z,97.99
2022-12-25T17:14:37.813Z,97.40
2022-12-25T17:17:04.667Z,97.02
2022-12-25T17:19:31.446Z,97.88
2022-12-25T17:21:58.208Z,97.57
2022-12-25T17:24:25.317Z,98.47
2022-12-25T17:26:52.106Z,97.78
2022-12-25T17:29:22.336Z,98.31
2022-12-25T17:31:49.911Z,99.09
2022-12-25T17:34:17.151Z,98.40
2022-12-25T17:36:44.113Z,98.22
2022-12-25T17:39:10.948Z,97.76
2022-12-25T17:41:37.615Z,98.12
2022-12-25T17:44:04.531Z,97.78
2022-12-25T17:46:31.274Z,97.53
2022-12-25T17:48:59.070Z,97.68
2022-12-25T17:51:26.461Z,97.69
2022-12-25T17:53:54.903Z,97.28
2022-12-25T17:56:22.312Z,98.86
2022-12-25T17:58:53.538Z,98.35
2022-12-25T18:01:20.413Z,99.68
2022-12-25T18:03:47.447Z,99.95
2022-12-25T18:06:17.349Z,99.62
2022-12-25T18:08:44.608Z,99.25
2022-12-25T18:11:15.149Z,98.94
2022-12-25T18:13:43.102Z,99.85
2022-12-25T18:16:09.900Z,99.16
2022-12-25T18:18:36.996Z,99.07
2022-12-25T18:21:04.052Z,99.08
2022-12-25T18:23:30.795Z,99.15
2022-12-25T18:26:01.417Z,98.97
2022-12-25T18:28:28.352Z,99.81
2022-12-25T18:30:55.302Z,99.97
2022-12-25T18:33:22.237Z,98.62
2022-12-25T18:35:48.940Z,99.58
2022-12-25T18:38:15.690Z,99.96
2022-12-25T18:40:47.101Z,99.20
2022-12-25T18:43:53.770Z,99.44
2022-12-25T18:46:32.662Z,98.90
2022-12-25T18:49:01.897Z,99.12
2022-12-25T18:51:34.924Z,99.38
2022-12-25T18:54:08.109Z,100.00
2022-12-25T18:56:40.788Z,98.87
2022-12-25T18:59:09.602Z,99.44
2022-12-25T19:01:36.515Z,99.54
2022-12-25T19:04:05.570Z,100.00
2022-12-25T19:06:35.601Z,99.57
2022-12-25T19:09:06.052Z,99.31
2022-12-25T19:11:46.160Z,98.32
2022-12-25T19:14:21.334Z,98.79
2022-12-25T19:17:22.556Z,99.19
2022-12-25T19:20:04.193Z,100.00
2022-12-25T19:22:35.471Z,99.67
2022-12-25T19:25:11.428Z,99.32
2022-12-25T19:27:48.019Z,99.39
2022-12-25T19:30:14.765Z,100.00
2022-12-25T19:32:41.580Z,99.62
2022-12-25T19:35:08.311Z,100.00
2022-12-25T19:37:35.108Z,100.00
2022-12-25T19:40:02.321Z,100.00
2022-12-25T19:42:29.033Z,100.00
2022-12-25T19:44:55.732Z,100.00
2022-12-25T19:47:22.406Z,100.00
2022-12-25T19:49:52.968Z,100.00
2022-12-25T19:52:20.521Z,99.42
2022-12-25T19:54:50.750Z,99.26
2022-12-25T19:57:17.843Z,99.01
2022-12-25T19:59:44.534Z,99.04
2022-12-25T20:02:11.501Z,99.20
2022-12-25T20:04:38.329Z,99.87
2022-12-25T20:07:05.076Z,100.00
2022-12-25T20:09:31.925Z,100.00
2022-12-25T20:11:58.801Z,100.00
2022-12-25T20:14:25.640Z,100.00
2022-12-25T20:16:52.392Z,100.00
2022-12-25T20:19:19.131Z,100.00
2022-12-25T20:21:45.914Z,100.00
2022-12-25T20:24:12.801Z,100.00
2022-12-25T20:26:39.767Z,100.00
2022-12-25T20:29:06.585Z,100.00
2022-12-25T20:31:34.148Z,100.00
2022-12-25T20:34:04.973Z,100.00
2022-12-25T20:36:36.849Z,100.00
2022-12-25T20:39:05.738Z,100.00
2022-12-25T20:41:32.424Z,100.00
2022-12-25T20:43:59.184Z,100.00
2022-12-25T20:46:26.819Z,100.00
2022-12-25T20:48:53.714Z,99.87
2022-12-25T20:51:25.010Z,100.00
2022-12-25T20:53:52.013Z,100.00
2022-12-25T20:56:21.538Z,100.00
2022-12-25T20:59:10.933Z,100.00
2022-12-25T21:01:56.061Z,100.00
2022-12-25T21:04:30.925Z,100.00
2022-12-25T21:07:00.143Z,100.00
2022-12-25T21:09:33.031Z,100.00
2022-12-25T21:11:59.791Z,100.00
2022-12-25T21:14:26.464Z,100.00
2022-12-25T21:16:53.295Z,100.00
2022-12-25T21:19:20.097Z,100.00
2022-12-25T21:21:50.036Z,100.00
2022-12-25T21:24:17.113Z,100.00
2022-12-25T21:26:48.016Z,100.00
2022-12-25T21:29:15.124Z,100.00
2022-12-25T21:31:41.810Z,100.00
2022-12-25T21:34:08.538Z,100.00
2022-12-25T21:36:35.330Z,100.00
2022-12-25T21:39:05.062Z,100.00
2022-12-25T21:41:32.526Z,100.00
2022-12-25T21:43:59.709Z,100.00
2022-12-25T21:46:26.990Z,100.00
2022-12-25T21:48:53.889Z,100.00
2022-12-25T21:51:22.988Z,100.00
2022-12-25T21:53:49.911Z,100.00
2022-12-25T21:56:16.761Z,100.00
2022-12-25T21:58:43.619Z,100.00
2022-12-25T22:01:10.606Z,100.00
2022-12-25T22:03:37.409Z,100.00
2022-12-25T22:06:04.391Z,100.00
2022-12-25T22:08:31.865Z,100.00
2022-12-25T22:10:58.945Z,100.00
2022-12-25T22:13:25.663Z,100.00
2022-12-25T22:15:52.549Z,100.00
2022-12-25T22:18:19.411Z,100.00
2022-12-25T22:20:46.169Z,99.78
2022-12-25T22:23:12.935Z,99.97
2022-12-25T22:25:39.689Z,100.00
2022-12-25T22:28:06.404Z,99.65
2022-12-25T22:30:33.100Z,99.62
2022-12-25T22:32:59.749Z,98.97
2022-12-25T22:35:26.484Z,99.56
2022-12-25T22:37:53.380Z,100.00
2022-12-25T22:40:20.363Z,100.00
2022-12-25T22:42:47.086Z,100.00
2022-12-25T22:45:14.039Z,100.00
2022-12-25T22:47:41.028Z,100.00
2022-12-25T22:50:08.135Z,100.00
2022-12-25T22:52:34.928Z,100.00
2022-12-25T22:55:01.702Z,100.00
2022-12-25T22:57:28.415Z,100.00
2022-12-25T22:59:55.100Z,100.00
2022-12-25T23:02:22.262Z,100.00
2022-12-25T23:04:49.194Z,100.00
2022-12-25T23:07:16.106Z,100.00
2022-12-25T23:09:43.749Z,100.00
2022-12-25T23:12:10.676Z,100.00
2022-12-25T23:14:37.326Z,100.00
2022-12-25T23:17:04.414Z,100.00
2022-12-25T23:19:31.202Z,100.00
2022-12-25T23:21:58.056Z,100.00
2022-12-25T23:24:24.804Z,100.00
2022-12-25T23:26:51.550Z,100.00
2022-12-25T23:29:18.361Z,100.00
2022-12-25T23:31:45.281Z,100.00
2022-12-25T23:34:12.127Z,100.00
2022-12-25T23:36:38.936Z,100.00
2022-12-25T23:39:10.129Z,100.00
2022-12-25T23:41:41.433Z,100.00
2022-12-25T23:44:08.906Z,100.00
2022-12-25T23:46:35.808Z,100.00
2022-12-25T23:49:02.563Z,100.00
2022-12-25T23:51:29.418Z,100.00
2022-12-25T23:53:56.283Z,100.00
2022-12-25T23:56:22.954Z,100.00
2022-12-25T23:58:49.864Z,100.00
